Zabol, Iran
Current Conditions -  °F | °C
As of 12:00 AM on Tuesday 21 Oct 2014 (Local Time) from OIZB Reporting Station
Clear Clear  
Wind Chill: 68°   Ceiling: Unl
Heat Index: 68°   Visibility: 5mi
Dew Point: 46°   Wind: 5mph
Humidity: 46%   Direction: 320°NW
Pressure: 29.97"   Gusts: NA
Location:  31.04°N, 61.5°E
Report Text: OIZB 202100Z 32004KT 8000 SKC 20/08 Q1015
Loading
Personal Weather Stations






























Interactive Weather Map
Tropical Storm Tracking
New forecast layout! Learn more

10-Day Weather Forecast

Advertisements
Track Severe Weather on mobile